PUEBLO AVIATION WEATHER

 


 

 

Check out the latest edition of "The Front" - A Regional Newsletter dedicated to Aviation Weather

Aviation Weather Center Standard Briefing 

 


 

 

Colorado Springs Airport(KCOS) Aviation Decision Support Information Page  

 

 

  Terminal Aerodrome Forecasts

Interactive TAF Java Tool

Plotted TAFs and/or Text TAFs

Text TAFs

Pueblo KPUB

000
FTUS45 KPUB 200520
TAFPUB
TAF
KPUB 200520Z 2006/2106 VRB03KT P6SM BKN200
     FM201900 12006KT P6SM SCT120 BKN200
     FM210300 VRB03KT P6SM SCT100 BKN150=
Colorado Springs KCOS
000
FTUS45 KPUB 200520
TAFCOS
TAF
KCOS 200520Z 2006/2106 01006KT P6SM BKN200
     FM201900 13006KT P6SM SCT110 BKN200
     FM210300 02006KT P6SM SCT080 BKN110=
Alamosa KALS

000
FTUS45 KPUB 200520
TAFALS
TAF
KALS 200520Z 2006/2106 VRB05KT P6SM SCT250
     FM201100 VRB03KT 2SM BR FEW002
      TEMPO 2012/2016 1/2SM FZFG BKN001
     FM201600 VRB05KT P6SM SCT100 BKN200
     FM210300 VRB03KT P6SM SCT060 OVC100=
Denver KDEN

000
FTUS45 KBOU 200522
TAFDEN
TAF
KDEN 200522Z 2006/2112 20010KT P6SM FEW120 SCT220
     FM202000 16007KT P6SM SCT110 BKN170
     FM210200 19008KT P6SM SCT110 BKN170=
  

 

Pilot Reports (PIREPs)

Aircraft Icing U.S. NESE
NCSC
NWSW
Sky Conditions U.S. NESE
NCSC
NWSW
Turbulence U.S. NESE
NCSC
NWSW

 

SOARING FORECAST

Experimental product for soaring guidance, Southern Front Range

 

 

 

METARS:

Pueblo


Colorado Springs


Denver

Alamosa


 

 


 

 

 

 

RADAR AND SATELLITE

radar
pueblo radar
 

 

Latest Radar from Pueblo
Click Image to Enlarge

 

IR Satellite
Colorado Infrared Satellite - Click to enlarge
Latest Colorado IR Satellite Image
Click Image to Enlarge
Vis Satellite
Colorado Visible Satellite - Click to enlarge
Latest Colorado Visible Satellite Image
Click Image to Enlarge

 

WATCHES AND WARNINGS

TEXT OF ALL COLORADO WARNINGS

 

Latest Watches And Warnings

 

 

CENTER WEATHER ADVISORIES

 

AIRMETS/SIGMETS

 

 

 


 

FORECAST DISCUSSION: FA

 

 


 

OBSERVED UPPER AIR WINDS

(COURTESY RAP/NCAR)

 

 


 

FORECAST UPPER AIR WINDS

 

 


 

SURFACE OBSERVATIONS

(COURTESY RAP/NCAR)

 

 

 :

 

NOTAMS:

https://www.notams.jcs.mil/geo/radiusForm.html

 

 

 

 

 

 

 

 

 

 

 

 

 

 

 

 


 

 

Constant Pressure Plots From the Storm Prediction Center

Link to the Sky Spotter Program Homepage

 

Other Aviation Links

NWS Aviation Weather Center

ADDS - Aviation Page
FAA Homepage

 


 

 

 

 

 

 

 

 

 

 

 

 

 

 

 

 

 

 

 

 

 

 

 

 

 

 

 

 

 

 

 

 

 

Plots of AIRMETS / SIGMETS

Text AIRMETS / SIGMETS by Center 

Interactive AIRMET/SIGMET Java Tool

 

 



USA.gov is the U.S. government's official web portal to all federal, state and local government web resources and services.